• Join FlightAware (Why Join?)
  • Login
  • US Flag 
05:16AM EDT


 

Airport Tracker/Info


-or-


 

Live Flight TrackerFlight Track Log ✈ TYR963 ✈ 24-Apr-2013 ✈ LOWW / VIE - LOWG / GRZ

Flight Track Log - Related Links

Times and Time Zones

All times are in EDT time to prevent confusion due to time zone crossing. See the TYR963 flight status page for this flight to view local times or setup timezone preferences in your user account.

Time Position Orientation Groundspeed Altitude Reporting Facility
EDT Latitude Longitude Course Direction KTS MPH feet Rate Location/Type
04:24AM 47.8866 16.3390 215° Southwest  Level Estimated
04:25AM 47.8119 16.2626 215° Southwest  Level Estimated
04:26AM 47.7372 16.1863 214° Southwest  Level Estimated
04:27AM 47.6624 16.1103 214° Southwest  Level Estimated
04:28AM 47.5876 16.0345 214° Southwest  Level Estimated
04:29AM 47.5127 15.9589 214° Southwest  Level Estimated
04:30AM 47.4378 15.8836 214° Southwest  Level Estimated
04:31AM 47.3628 15.8084 214° Southwest  Level Estimated
04:32AM 47.2878 15.7335 214° Southwest  Level Estimated
04:33AM 47.2127 15.6587 214° Southwest  Level Estimated
04:34AM 47.1376 15.5842 214° Southwest  Level Estimated
04:35AM 47.0624 15.5099 214° Southwest  Level Estimated
04:36AM 46.9911 15.4396 214° Southwest  Level Estimated
04:37AM 46.9911 15.4396 204° Southwest  Level Estimated
04:38AM 46.9911 15.4396 204° Southwest  Level Estimated
04:39AM 46.9911 15.4396 204° Southwest  Level Estimated
04:40AM 46.9911 15.4396 204° Southwest  Level Estimated
04:41AM 46.9911 15.4396 204° Southwest  Level Estimated
04:42AM 46.9911 15.4396 204° Southwest  Level Estimated
04:43AM 46.9911 15.4396 204° Southwest  Level Estimated